sensor_id;sensor_type;location;lat;lon;timestamp;temperature;humidity
19799;DHT22;10059;59.850;10.454;2023-05-07T00:00:21;1.80;99.90
19799;DHT22;10059;59.850;10.454;2023-05-07T00:02:48;1.80;99.90
19799;DHT22;10059;59.850;10.454;2023-05-07T00:05:15;1.90;99.90
19799;DHT22;10059;59.850;10.454;2023-05-07T00:07:42;1.80;99.90
19799;DHT22;10059;59.850;10.454;2023-05-07T00:10:10;1.80;99.90
19799;DHT22;10059;59.850;10.454;2023-05-07T00:12:37;1.70;99.90
19799;DHT22;10059;59.850;10.454;2023-05-07T00:15:07;1.60;99.90
19799;DHT22;10059;59.850;10.454;2023-05-07T00:17:34;1.50;99.90
19799;DHT22;10059;59.850;10.454;2023-05-07T00:20:01;1.60;99.90
19799;DHT22;10059;59.850;10.454;2023-05-07T00:22:28;1.60;99.90
19799;DHT22;10059;59.850;10.454;2023-05-07T00:24:56;1.60;99.90
19799;DHT22;10059;59.850;10.454;2023-05-07T00:27:23;1.50;99.90
19799;DHT22;10059;59.850;10.454;2023-05-07T00:29:50;1.40;99.90
19799;DHT22;10059;59.850;10.454;2023-05-07T00:32:18;1.40;99.90
19799;DHT22;10059;59.850;10.454;2023-05-07T00:34:45;1.40;99.90
19799;DHT22;10059;59.850;10.454;2023-05-07T00:37:12;1.30;99.90
19799;DHT22;10059;59.850;10.454;2023-05-07T00:39:39;1.40;99.90
19799;DHT22;10059;59.850;10.454;2023-05-07T00:42:05;1.40;99.90
19799;DHT22;10059;59.850;10.454;2023-05-07T00:44:33;1.40;99.90
19799;DHT22;10059;59.850;10.454;2023-05-07T00:47:02;1.40;99.90
19799;DHT22;10059;59.850;10.454;2023-05-07T00:49:37;1.40;99.90
19799;DHT22;10059;59.850;10.454;2023-05-07T00:52:05;1.40;99.90
19799;DHT22;10059;59.850;10.454;2023-05-07T00:54:33;1.40;99.90
19799;DHT22;10059;59.850;10.454;2023-05-07T00:57:02;1.40;99.90
19799;DHT22;10059;59.850;10.454;2023-05-07T00:59:29;1.40;99.90
19799;DHT22;10059;59.850;10.454;2023-05-07T01:01:56;1.40;99.90
19799;DHT22;10059;59.850;10.454;2023-05-07T01:04:23;1.30;99.90
19799;DHT22;10059;59.850;10.454;2023-05-07T01:06:52;1.30;99.90
19799;DHT22;10059;59.850;10.454;2023-05-07T01:09:20;1.20;99.90
19799;DHT22;10059;59.850;10.454;2023-05-07T01:11:47;1.20;99.90
19799;DHT22;10059;59.850;10.454;2023-05-07T01:14:16;1.20;99.90
19799;DHT22;10059;59.850;10.454;2023-05-07T01:16:43;1.20;99.90
19799;DHT22;10059;59.850;10.454;2023-05-07T01:19:11;1.30;99.90
19799;DHT22;10059;59.850;10.454;2023-05-07T01:21:44;1.20;99.90
19799;DHT22;10059;59.850;10.454;2023-05-07T01:24:13;1.10;99.90
19799;DHT22;10059;59.850;10.454;2023-05-07T01:26:42;1.00;99.90
19799;DHT22;10059;59.850;10.454;2023-05-07T01:29:09;1.00;99.90
19799;DHT22;10059;59.850;10.454;2023-05-07T01:31:37;0.90;99.90
19799;DHT22;10059;59.850;10.454;2023-05-07T01:34:05;1.00;99.90
19799;DHT22;10059;59.850;10.454;2023-05-07T01:36:34;0.90;99.90
19799;DHT22;10059;59.850;10.454;2023-05-07T01:39:03;0.90;99.90
19799;DHT22;10059;59.850;10.454;2023-05-07T01:41:32;1.00;99.90
19799;DHT22;10059;59.850;10.454;2023-05-07T01:43:59;0.90;99.90
19799;DHT22;10059;59.850;10.454;2023-05-07T01:46:27;0.80;99.90
19799;DHT22;10059;59.850;10.454;2023-05-07T01:48:54;0.80;99.90
19799;DHT22;10059;59.850;10.454;2023-05-07T01:51:21;0.80;99.90
19799;DHT22;10059;59.850;10.454;2023-05-07T01:53:48;0.80;99.90
19799;DHT22;10059;59.850;10.454;2023-05-07T01:56:16;0.70;99.90
19799;DHT22;10059;59.850;10.454;2023-05-07T01:58:45;0.70;99.90
19799;DHT22;10059;59.850;10.454;2023-05-07T02:01:12;0.80;99.90
19799;DHT22;10059;59.850;10.454;2023-05-07T02:03:39;0.80;99.90
19799;DHT22;10059;59.850;10.454;2023-05-07T02:06:06;0.70;99.90
19799;DHT22;10059;59.850;10.454;2023-05-07T02:08:33;0.70;99.90
19799;DHT22;10059;59.850;10.454;2023-05-07T02:11:00;0.70;99.90
19799;DHT22;10059;59.850;10.454;2023-05-07T02:13:29;0.60;99.90
19799;DHT22;10059;59.850;10.454;2023-05-07T02:15:58;0.60;99.90
19799;DHT22;10059;59.850;10.454;2023-05-07T02:18:25;0.60;99.90
19799;DHT22;10059;59.850;10.454;2023-05-07T02:20:52;0.60;99.90
19799;DHT22;10059;59.850;10.454;2023-05-07T02:23:18;0.60;99.90
19799;DHT22;10059;59.850;10.454;2023-05-07T02:25:45;0.60;99.90
19799;DHT22;10059;59.850;10.454;2023-05-07T02:28:12;0.60;99.90
19799;DHT22;10059;59.850;10.454;2023-05-07T02:30:39;0.60;99.90
19799;DHT22;10059;59.850;10.454;2023-05-07T02:33:08;0.60;99.90
19799;DHT22;10059;59.850;10.454;2023-05-07T02:35:35;0.50;99.90
19799;DHT22;10059;59.850;10.454;2023-05-07T02:38:02;0.50;99.90
19799;DHT22;10059;59.850;10.454;2023-05-07T02:40:29;0.50;99.90
19799;DHT22;10059;59.850;10.454;2023-05-07T02:42:59;0.50;99.90
19799;DHT22;10059;59.850;10.454;2023-05-07T02:45:25;0.50;99.90
19799;DHT22;10059;59.850;10.454;2023-05-07T02:47:52;0.40;99.90
19799;DHT22;10059;59.850;10.454;2023-05-07T02:50:21;0.50;99.90
19799;DHT22;10059;59.850;10.454;2023-05-07T02:52:47;0.50;99.90
19799;DHT22;10059;59.850;10.454;2023-05-07T02:55:14;0.50;99.90
19799;DHT22;10059;59.850;10.454;2023-05-07T02:57:41;0.50;99.90
19799;DHT22;10059;59.850;10.454;2023-05-07T03:00:13;0.50;99.90
19799;DHT22;10059;59.850;10.454;2023-05-07T03:02:40;0.50;99.90
19799;DHT22;10059;59.850;10.454;2023-05-07T03:05:07;0.50;99.90
19799;DHT22;10059;59.850;10.454;2023-05-07T03:07:36;0.50;99.90
19799;DHT22;10059;59.850;10.454;2023-05-07T03:10:03;0.40;99.90
19799;DHT22;10059;59.850;10.454;2023-05-07T03:12:30;0.50;99.90
19799;DHT22;10059;59.850;10.454;2023-05-07T03:14:57;0.50;99.90
19799;DHT22;10059;59.850;10.454;2023-05-07T03:17:24;0.40;99.90
19799;DHT22;10059;59.850;10.454;2023-05-07T03:19:51;0.50;99.90
19799;DHT22;10059;59.850;10.454;2023-05-07T03:22:18;0.40;99.90
19799;DHT22;10059;59.850;10.454;2023-05-07T03:24:47;0.40;99.90
19799;DHT22;10059;59.850;10.454;2023-05-07T03:27:14;0.40;99.90
19799;DHT22;10059;59.850;10.454;2023-05-07T03:29:41;0.40;99.90
19799;DHT22;10059;59.850;10.454;2023-05-07T03:32:07;0.40;99.90
19799;DHT22;10059;59.850;10.454;2023-05-07T03:34:34;0.50;99.90
19799;DHT22;10059;59.850;10.454;2023-05-07T03:37:01;0.50;99.90
19799;DHT22;10059;59.850;10.454;2023-05-07T03:39:28;0.50;99.90
19799;DHT22;10059;59.850;10.454;2023-05-07T03:41:57;0.60;99.90
19799;DHT22;10059;59.850;10.454;2023-05-07T03:44:24;0.60;99.90
19799;DHT22;10059;59.850;10.454;2023-05-07T03:46:51;0.60;99.90
19799;DHT22;10059;59.850;10.454;2023-05-07T03:49:17;0.70;99.90
19799;DHT22;10059;59.850;10.454;2023-05-07T03:51:44;0.70;99.90
19799;DHT22;10059;59.850;10.454;2023-05-07T03:54:11;0.80;99.90
19799;DHT22;10059;59.850;10.454;2023-05-07T03:56:38;0.80;99.90
19799;DHT22;10059;59.850;10.454;2023-05-07T03:59:06;0.90;99.90
19799;DHT22;10059;59.850;10.454;2023-05-07T04:01:33;1.00;99.90
19799;DHT22;10059;59.850;10.454;2023-05-07T04:04:00;1.00;99.90
19799;DHT22;10059;59.850;10.454;2023-05-07T04:06:27;1.10;99.90
19799;DHT22;10059;59.850;10.454;2023-05-07T04:08:54;1.20;99.90
19799;DHT22;10059;59.850;10.454;2023-05-07T04:11:20;1.30;99.90
19799;DHT22;10059;59.850;10.454;2023-05-07T04:13:47;1.30;99.90
19799;DHT22;10059;59.850;10.454;2023-05-07T04:16:16;1.40;99.90
19799;DHT22;10059;59.850;10.454;2023-05-07T04:18:42;1.40;99.90
19799;DHT22;10059;59.850;10.454;2023-05-07T04:21:14;1.60;99.90
19799;DHT22;10059;59.850;10.454;2023-05-07T04:23:41;1.70;99.90
19799;DHT22;10059;59.850;10.454;2023-05-07T04:26:08;1.90;99.90
19799;DHT22;10059;59.850;10.454;2023-05-07T04:28:35;2.20;99.90
19799;DHT22;10059;59.850;10.454;2023-05-07T04:31:02;2.50;99.90
19799;DHT22;10059;59.850;10.454;2023-05-07T04:33:30;2.70;99.90
19799;DHT22;10059;59.850;10.454;2023-05-07T04:35:58;2.80;99.90
19799;DHT22;10059;59.850;10.454;2023-05-07T04:38:28;3.10;99.90
19799;DHT22;10059;59.850;10.454;2023-05-07T04:40:55;3.40;99.90
19799;DHT22;10059;59.850;10.454;2023-05-07T04:43:22;3.30;99.90
19799;DHT22;10059;59.850;10.454;2023-05-07T04:45:50;3.20;99.90
19799;DHT22;10059;59.850;10.454;2023-05-07T04:48:17;3.40;99.90
19799;DHT22;10059;59.850;10.454;2023-05-07T04:50:47;3.70;99.90
19799;DHT22;10059;59.850;10.454;2023-05-07T04:53:14;4.00;99.90
19799;DHT22;10059;59.850;10.454;2023-05-07T04:55:41;4.10;99.90
19799;DHT22;10059;59.850;10.454;2023-05-07T04:58:08;4.30;99.90
19799;DHT22;10059;59.850;10.454;2023-05-07T05:00:36;4.50;99.90
19799;DHT22;10059;59.850;10.454;2023-05-07T05:03:03;4.60;99.90
19799;DHT22;10059;59.850;10.454;2023-05-07T05:05:30;4.90;99.90
19799;DHT22;10059;59.850;10.454;2023-05-07T05:07:59;5.00;99.90
19799;DHT22;10059;59.850;10.454;2023-05-07T05:10:25;5.20;99.90
19799;DHT22;10059;59.850;10.454;2023-05-07T05:12:52;5.60;99.90
19799;DHT22;10059;59.850;10.454;2023-05-07T05:15:19;6.00;99.90
19799;DHT22;10059;59.850;10.454;2023-05-07T05:17:46;6.40;99.90
19799;DHT22;10059;59.850;10.454;2023-05-07T05:20:13;6.70;99.90
19799;DHT22;10059;59.850;10.454;2023-05-07T05:22:41;7.00;99.90
19799;DHT22;10059;59.850;10.454;2023-05-07T05:25:09;7.30;99.90
19799;DHT22;10059;59.850;10.454;2023-05-07T05:27:36;7.40;99.90
19799;DHT22;10059;59.850;10.454;2023-05-07T05:30:03;7.50;99.90
19799;DHT22;10059;59.850;10.454;2023-05-07T05:32:31;7.80;99.90
19799;DHT22;10059;59.850;10.454;2023-05-07T05:34:57;7.80;99.90
19799;DHT22;10059;59.850;10.454;2023-05-07T05:37:25;8.10;99.90
19799;DHT22;10059;59.850;10.454;2023-05-07T05:39:52;8.40;99.90
19799;DHT22;10059;59.850;10.454;2023-05-07T05:42:21;8.40;99.90
19799;DHT22;10059;59.850;10.454;2023-05-07T05:44:48;8.50;99.90
19799;DHT22;10059;59.850;10.454;2023-05-07T05:47:15;8.70;99.90
19799;DHT22;10059;59.850;10.454;2023-05-07T05:49:42;9.00;99.90
19799;DHT22;10059;59.850;10.454;2023-05-07T05:52:09;9.00;99.90
19799;DHT22;10059;59.850;10.454;2023-05-07T05:54:36;9.30;99.90
19799;DHT22;10059;59.850;10.454;2023-05-07T05:57:04;9.40;99.90
19799;DHT22;10059;59.850;10.454;2023-05-07T05:59:32;9.50;99.90
19799;DHT22;10059;59.850;10.454;2023-05-07T06:01:59;9.70;99.90
19799;DHT22;10059;59.850;10.454;2023-05-07T06:04:27;9.90;99.90
19799;DHT22;10059;59.850;10.454;2023-05-07T06:06:53;9.90;99.90
19799;DHT22;10059;59.850;10.454;2023-05-07T06:09:20;10.10;99.90
19799;DHT22;10059;59.850;10.454;2023-05-07T06:11:47;10.20;99.90
19799;DHT22;10059;59.850;10.454;2023-05-07T06:14:14;10.60;99.90
19799;DHT22;10059;59.850;10.454;2023-05-07T06:16:42;10.60;99.90
19799;DHT22;10059;59.850;10.454;2023-05-07T06:19:09;10.10;99.90
19799;DHT22;10059;59.850;10.454;2023-05-07T06:21:36;10.40;99.90
19799;DHT22;10059;59.850;10.454;2023-05-07T06:24:03;10.70;99.90
19799;DHT22;10059;59.850;10.454;2023-05-07T06:26:29;10.70;99.90
19799;DHT22;10059;59.850;10.454;2023-05-07T06:28:56;10.90;99.90
19799;DHT22;10059;59.850;10.454;2023-05-07T06:31:28;10.90;99.90
19799;DHT22;10059;59.850;10.454;2023-05-07T06:33:56;10.60;99.90
19799;DHT22;10059;59.850;10.454;2023-05-07T06:36:24;10.70;99.90
19799;DHT22;10059;59.850;10.454;2023-05-07T06:38:51;10.70;99.90
19799;DHT22;10059;59.850;10.454;2023-05-07T06:41:18;10.70;99.90
19799;DHT22;10059;59.850;10.454;2023-05-07T06:43:45;10.70;99.90
19799;DHT22;10059;59.850;10.454;2023-05-07T06:46:12;10.40;99.90
19799;DHT22;10059;59.850;10.454;2023-05-07T06:48:39;10.60;99.90
19799;DHT22;10059;59.850;10.454;2023-05-07T06:51:07;10.70;99.90
19799;DHT22;10059;59.850;10.454;2023-05-07T06:53:35;10.80;99.90
19799;DHT22;10059;59.850;10.454;2023-05-07T06:56:02;11.10;99.90
19799;DHT22;10059;59.850;10.454;2023-05-07T06:58:29;11.60;99.90
19799;DHT22;10059;59.850;10.454;2023-05-07T07:00:56;12.00;99.90
19799;DHT22;10059;59.850;10.454;2023-05-07T07:03:23;12.70;99.90
19799;DHT22;10059;59.850;10.454;2023-05-07T07:05:51;12.20;99.90
19799;DHT22;10059;59.850;10.454;2023-05-07T07:08:19;12.20;99.90
19799;DHT22;10059;59.850;10.454;2023-05-07T07:10:47;11.60;99.90
19799;DHT22;10059;59.850;10.454;2023-05-07T07:13:14;12.00;99.90
19799;DHT22;10059;59.850;10.454;2023-05-07T07:15:41;11.90;99.90
19799;DHT22;10059;59.850;10.454;2023-05-07T07:18:08;11.50;99.90
19799;DHT22;10059;59.850;10.454;2023-05-07T07:20:35;11.80;99.90
19799;DHT22;10059;59.850;10.454;2023-05-07T07:23:02;12.30;99.90
19799;DHT22;10059;59.850;10.454;2023-05-07T07:25:30;11.80;99.90
19799;DHT22;10059;59.850;10.454;2023-05-07T07:27:57;12.50;99.90
19799;DHT22;10059;59.850;10.454;2023-05-07T07:30:25;12.40;99.90
19799;DHT22;10059;59.850;10.454;2023-05-07T07:32:52;12.70;99.90
19799;DHT22;10059;59.850;10.454;2023-05-07T07:35:19;13.20;99.90
19799;DHT22;10059;59.850;10.454;2023-05-07T07:37:47;13.20;99.90
19799;DHT22;10059;59.850;10.454;2023-05-07T07:40:15;13.40;99.90
19799;DHT22;10059;59.850;10.454;2023-05-07T07:42:43;13.10;99.90
19799;DHT22;10059;59.850;10.454;2023-05-07T07:45:10;13.60;99.90
19799;DHT22;10059;59.850;10.454;2023-05-07T07:47:38;13.80;99.90
19799;DHT22;10059;59.850;10.454;2023-05-07T07:50:05;13.80;99.90
19799;DHT22;10059;59.850;10.454;2023-05-07T07:52:32;14.00;99.70
19799;DHT22;10059;59.850;10.454;2023-05-07T07:55:00;13.90;99.90
19799;DHT22;10059;59.850;10.454;2023-05-07T07:57:27;13.60;99.90
19799;DHT22;10059;59.850;10.454;2023-05-07T07:59:55;13.20;99.90
19799;DHT22;10059;59.850;10.454;2023-05-07T08:02:22;13.30;99.90
19799;DHT22;10059;59.850;10.454;2023-05-07T08:04:48;13.60;99.90
19799;DHT22;10059;59.850;10.454;2023-05-07T08:07:15;14.10;99.90
19799;DHT22;10059;59.850;10.454;2023-05-07T08:09:44;13.50;98.90
19799;DHT22;10059;59.850;10.454;2023-05-07T08:12:11;13.80;98.40
19799;DHT22;10059;59.850;10.454;2023-05-07T08:14:38;14.20;98.50
19799;DHT22;10059;59.850;10.454;2023-05-07T08:17:06;14.90;97.90
19799;DHT22;10059;59.850;10.454;2023-05-07T08:19:35;14.80;97.80
19799;DHT22;10059;59.850;10.454;2023-05-07T08:22:02;14.40;97.40
19799;DHT22;10059;59.850;10.454;2023-05-07T08:24:29;14.70;98.20
19799;DHT22;10059;59.850;10.454;2023-05-07T08:26:56;15.20;97.10
19799;DHT22;10059;59.850;10.454;2023-05-07T08:29:23;14.80;97.00
19799;DHT22;10059;59.850;10.454;2023-05-07T08:31:50;15.40;97.00
19799;DHT22;10059;59.850;10.454;2023-05-07T08:34:18;15.60;96.30
19799;DHT22;10059;59.850;10.454;2023-05-07T08:36:45;15.00;95.80
19799;DHT22;10059;59.850;10.454;2023-05-07T08:39:13;14.90;96.00
19799;DHT22;10059;59.850;10.454;2023-05-07T08:41:40;15.10;96.00
19799;DHT22;10059;59.850;10.454;2023-05-07T08:44:12;15.40;96.40
19799;DHT22;10059;59.850;10.454;2023-05-07T08:46:41;15.10;94.50
19799;DHT22;10059;59.850;10.454;2023-05-07T08:49:09;15.50;93.50
19799;DHT22;10059;59.850;10.454;2023-05-07T08:51:37;15.40;95.80
19799;DHT22;10059;59.850;10.454;2023-05-07T08:54:04;15.90;94.40
19799;DHT22;10059;59.850;10.454;2023-05-07T08:56:32;15.90;94.50
19799;DHT22;10059;59.850;10.454;2023-05-07T08:58:59;15.10;93.70
19799;DHT22;10059;59.850;10.454;2023-05-07T09:01:26;15.60;94.20
19799;DHT22;10059;59.850;10.454;2023-05-07T09:03:53;15.70;92.90
19799;DHT22;10059;59.850;10.454;2023-05-07T09:06:20;15.70;92.80
19799;DHT22;10059;59.850;10.454;2023-05-07T09:08:52;15.80;93.00
19799;DHT22;10059;59.850;10.454;2023-05-07T09:11:22;16.20;92.70
19799;DHT22;10059;59.850;10.454;2023-05-07T09:13:52;16.20;91.70
19799;DHT22;10059;59.850;10.454;2023-05-07T09:16:20;15.60;91.70
19799;DHT22;10059;59.850;10.454;2023-05-07T09:18:51;15.60;91.50
19799;DHT22;10059;59.850;10.454;2023-05-07T09:21:19;15.70;91.60
19799;DHT22;10059;59.850;10.454;2023-05-07T09:23:46;16.40;92.20
19799;DHT22;10059;59.850;10.454;2023-05-07T09:26:15;16.40;91.20
19799;DHT22;10059;59.850;10.454;2023-05-07T09:28:42;16.80;88.50
19799;DHT22;10059;59.850;10.454;2023-05-07T09:31:10;16.60;88.20
19799;DHT22;10059;59.850;10.454;2023-05-07T09:33:37;16.50;86.30
19799;DHT22;10059;59.850;10.454;2023-05-07T09:36:05;16.40;87.60
19799;DHT22;10059;59.850;10.454;2023-05-07T09:38:33;16.20;86.10
19799;DHT22;10059;59.850;10.454;2023-05-07T09:41:04;15.90;82.00
19799;DHT22;10059;59.850;10.454;2023-05-07T09:43:36;15.50;79.80
19799;DHT22;10059;59.850;10.454;2023-05-07T09:46:06;16.40;85.50
19799;DHT22;10059;59.850;10.454;2023-05-07T09:48:37;16.00;85.60
19799;DHT22;10059;59.850;10.454;2023-05-07T09:51:12;15.80;83.50
19799;DHT22;10059;59.850;10.454;2023-05-07T09:53:42;16.00;84.10
19799;DHT22;10059;59.850;10.454;2023-05-07T09:56:12;16.10;85.10
19799;DHT22;10059;59.850;10.454;2023-05-07T09:58:41;16.20;79.10
19799;DHT22;10059;59.850;10.454;2023-05-07T10:01:10;16.80;75.60
19799;DHT22;10059;59.850;10.454;2023-05-07T10:03:40;16.80;71.40
19799;DHT22;10059;59.850;10.454;2023-05-07T10:06:08;16.60;71.00
19799;DHT22;10059;59.850;10.454;2023-05-07T10:08:36;16.50;72.80
19799;DHT22;10059;59.850;10.454;2023-05-07T10:11:03;16.60;74.60
19799;DHT22;10059;59.850;10.454;2023-05-07T10:13:31;16.40;76.30
19799;DHT22;10059;59.850;10.454;2023-05-07T10:16:00;16.20;76.20
19799;DHT22;10059;59.850;10.454;2023-05-07T10:18:28;16.40;76.40
19799;DHT22;10059;59.850;10.454;2023-05-07T10:21:01;16.10;76.40
19799;DHT22;10059;59.850;10.454;2023-05-07T10:23:29;16.40;74.00
19799;DHT22;10059;59.850;10.454;2023-05-07T10:25:58;16.50;75.70
19799;DHT22;10059;59.850;10.454;2023-05-07T10:28:26;16.40;75.30
19799;DHT22;10059;59.850;10.454;2023-05-07T10:31:02;16.50;75.70
19799;DHT22;10059;59.850;10.454;2023-05-07T10:33:34;16.80;75.40
19799;DHT22;10059;59.850;10.454;2023-05-07T10:36:03;16.50;72.60
19799;DHT22;10059;59.850;10.454;2023-05-07T10:38:31;16.30;74.70
19799;DHT22;10059;59.850;10.454;2023-05-07T10:40:58;16.30;75.70
19799;DHT22;10059;59.850;10.454;2023-05-07T10:43:25;16.70;76.80
19799;DHT22;10059;59.850;10.454;2023-05-07T10:46:14;17.00;78.00
19799;DHT22;10059;59.850;10.454;2023-05-07T10:49:09;17.00;78.50
19799;DHT22;10059;59.850;10.454;2023-05-07T10:51:37;17.60;77.70
19799;DHT22;10059;59.850;10.454;2023-05-07T10:54:22;17.90;75.30
19799;DHT22;10059;59.850;10.454;2023-05-07T10:56:49;17.50;75.50
19799;DHT22;10059;59.850;10.454;2023-05-07T10:59:31;17.10;74.90
19799;DHT22;10059;59.850;10.454;2023-05-07T11:02:01;16.50;76.60
19799;DHT22;10059;59.850;10.454;2023-05-07T11:04:29;16.80;76.40
19799;DHT22;10059;59.850;10.454;2023-05-07T11:07:25;16.60;76.20
19799;DHT22;10059;59.850;10.454;2023-05-07T11:10:00;16.50;75.60
19799;DHT22;10059;59.850;10.454;2023-05-07T11:12:51;16.30;75.70
19799;DHT22;10059;59.850;10.454;2023-05-07T11:15:38;17.30;76.80
19799;DHT22;10059;59.850;10.454;2023-05-07T11:18:09;17.30;73.50
19799;DHT22;10059;59.850;10.454;2023-05-07T11:20:46;17.20;74.20
19799;DHT22;10059;59.850;10.454;2023-05-07T11:26:18;18.00;74.70
19799;DHT22;10059;59.850;10.454;2023-05-07T11:28:46;17.40;74.00
19799;DHT22;10059;59.850;10.454;2023-05-07T11:31:13;17.40;73.90
19799;DHT22;10059;59.850;10.454;2023-05-07T11:33:43;17.30;74.80
19799;DHT22;10059;59.850;10.454;2023-05-07T11:36:11;17.10;74.60
19799;DHT22;10059;59.850;10.454;2023-05-07T11:38:38;16.90;75.00
19799;DHT22;10059;59.850;10.454;2023-05-07T11:41:05;17.20;73.50
19799;DHT22;10059;59.850;10.454;2023-05-07T11:43:32;17.40;74.20
19799;DHT22;10059;59.850;10.454;2023-05-07T11:46:08;17.40;73.20
19799;DHT22;10059;59.850;10.454;2023-05-07T11:48:36;17.40;71.40
19799;DHT22;10059;59.850;10.454;2023-05-07T11:51:05;17.10;70.50
19799;DHT22;10059;59.850;10.454;2023-05-07T11:53:39;17.80;72.70
19799;DHT22;10059;59.850;10.454;2023-05-07T11:56:07;17.90;69.90
19799;DHT22;10059;59.850;10.454;2023-05-07T11:58:34;17.70;70.90
19799;DHT22;10059;59.850;10.454;2023-05-07T12:01:00;17.80;69.40
19799;DHT22;10059;59.850;10.454;2023-05-07T12:03:27;18.00;71.60
19799;DHT22;10059;59.850;10.454;2023-05-07T12:05:55;18.30;70.20
19799;DHT22;10059;59.850;10.454;2023-05-07T12:08:23;18.00;70.70
19799;DHT22;10059;59.850;10.454;2023-05-07T12:10:50;17.80;75.00
19799;DHT22;10059;59.850;10.454;2023-05-07T12:13:18;17.60;72.30
19799;DHT22;10059;59.850;10.454;2023-05-07T12:15:46;17.80;73.50
19799;DHT22;10059;59.850;10.454;2023-05-07T12:18:13;17.60;78.20
19799;DHT22;10059;59.850;10.454;2023-05-07T12:20:40;17.50;76.20
19799;DHT22;10059;59.850;10.454;2023-05-07T12:23:07;17.00;77.40
19799;DHT22;10059;59.850;10.454;2023-05-07T12:25:36;17.20;76.30
19799;DHT22;10059;59.850;10.454;2023-05-07T12:28:04;17.70;76.30
19799;DHT22;10059;59.850;10.454;2023-05-07T12:30:31;17.50;75.00
19799;DHT22;10059;59.850;10.454;2023-05-07T12:32:58;17.40;76.90
19799;DHT22;10059;59.850;10.454;2023-05-07T12:35:28;17.20;76.60
19799;DHT22;10059;59.850;10.454;2023-05-07T12:37:55;16.50;80.50
19799;DHT22;10059;59.850;10.454;2023-05-07T12:40:24;16.90;82.40
19799;DHT22;10059;59.850;10.454;2023-05-07T12:42:54;16.80;83.50
19799;DHT22;10059;59.850;10.454;2023-05-07T12:45:21;17.30;81.80
19799;DHT22;10059;59.850;10.454;2023-05-07T12:47:48;16.80;81.70
19799;DHT22;10059;59.850;10.454;2023-05-07T12:50:16;17.20;81.90
19799;DHT22;10059;59.850;10.454;2023-05-07T12:52:43;17.00;81.10
19799;DHT22;10059;59.850;10.454;2023-05-07T12:55:13;16.70;82.90
19799;DHT22;10059;59.850;10.454;2023-05-07T12:57:42;17.10;83.30
19799;DHT22;10059;59.850;10.454;2023-05-07T13:00:11;16.90;83.60
19799;DHT22;10059;59.850;10.454;2023-05-07T13:02:39;16.70;81.60
19799;DHT22;10059;59.850;10.454;2023-05-07T13:05:07;17.00;76.50
19799;DHT22;10059;59.850;10.454;2023-05-07T13:07:34;17.90;74.00
19799;DHT22;10059;59.850;10.454;2023-05-07T13:10:02;18.00;74.60
19799;DHT22;10059;59.850;10.454;2023-05-07T13:12:29;17.90;74.40
19799;DHT22;10059;59.850;10.454;2023-05-07T13:14:56;17.70;72.30
19799;DHT22;10059;59.850;10.454;2023-05-07T13:17:24;17.70;73.60
19799;DHT22;10059;59.850;10.454;2023-05-07T13:19:51;17.20;73.40
19799;DHT22;10059;59.850;10.454;2023-05-07T13:22:18;17.10;73.40
19799;DHT22;10059;59.850;10.454;2023-05-07T13:24:45;17.10;74.90
19799;DHT22;10059;59.850;10.454;2023-05-07T13:27:12;16.70;73.20
19799;DHT22;10059;59.850;10.454;2023-05-07T13:29:39;17.60;75.10
19799;DHT22;10059;59.850;10.454;2023-05-07T13:32:05;17.40;71.60
19799;DHT22;10059;59.850;10.454;2023-05-07T13:34:34;17.50;72.70
19799;DHT22;10059;59.850;10.454;2023-05-07T13:37:00;17.60;71.70
19799;DHT22;10059;59.850;10.454;2023-05-07T13:39:27;17.90;71.60
19799;DHT22;10059;59.850;10.454;2023-05-07T13:41:54;17.80;70.20
19799;DHT22;10059;59.850;10.454;2023-05-07T13:44:21;18.10;72.00
19799;DHT22;10059;59.850;10.454;2023-05-07T13:46:48;17.30;69.90
19799;DHT22;10059;59.850;10.454;2023-05-07T13:49:14;17.40;72.20
19799;DHT22;10059;59.850;10.454;2023-05-07T13:51:43;17.20;73.80
19799;DHT22;10059;59.850;10.454;2023-05-07T13:54:09;17.80;72.00
19799;DHT22;10059;59.850;10.454;2023-05-07T13:56:37;17.60;71.70
19799;DHT22;10059;59.850;10.454;2023-05-07T13:59:04;18.30;72.70
19799;DHT22;10059;59.850;10.454;2023-05-07T14:01:31;18.20;70.60
19799;DHT22;10059;59.850;10.454;2023-05-07T14:03:57;17.90;71.60
19799;DHT22;10059;59.850;10.454;2023-05-07T14:06:25;17.00;72.70
19799;DHT22;10059;59.850;10.454;2023-05-07T14:08:53;17.20;73.50
19799;DHT22;10059;59.850;10.454;2023-05-07T14:11:23;17.30;74.20
19799;DHT22;10059;59.850;10.454;2023-05-07T14:13:50;17.50;74.80
19799;DHT22;10059;59.850;10.454;2023-05-07T14:16:17;17.30;73.00
19799;DHT22;10059;59.850;10.454;2023-05-07T14:18:43;17.40;73.30
19799;DHT22;10059;59.850;10.454;2023-05-07T14:21:10;17.10;74.60
19799;DHT22;10059;59.850;10.454;2023-05-07T14:23:37;17.00;77.20
19799;DHT22;10059;59.850;10.454;2023-05-07T14:26:05;17.00;77.50
19799;DHT22;10059;59.850;10.454;2023-05-07T14:28:32;16.90;77.60
19799;DHT22;10059;59.850;10.454;2023-05-07T14:30:59;17.50;77.20
19799;DHT22;10059;59.850;10.454;2023-05-07T14:33:26;17.10;77.50
19799;DHT22;10059;59.850;10.454;2023-05-07T14:35:53;17.60;78.40
19799;DHT22;10059;59.850;10.454;2023-05-07T14:38:20;17.70;78.60
19799;DHT22;10059;59.850;10.454;2023-05-07T14:40:47;17.20;79.60
19799;DHT22;10059;59.850;10.454;2023-05-07T14:43:16;17.10;81.90
19799;DHT22;10059;59.850;10.454;2023-05-07T14:45:46;16.40;83.40
19799;DHT22;10059;59.850;10.454;2023-05-07T14:48:13;16.80;82.60
19799;DHT22;10059;59.850;10.454;2023-05-07T14:50:40;16.40;81.50
19799;DHT22;10059;59.850;10.454;2023-05-07T14:53:07;16.80;83.10
19799;DHT22;10059;59.850;10.454;2023-05-07T14:55:34;16.80;83.40
19799;DHT22;10059;59.850;10.454;2023-05-07T14:58:01;17.00;84.10
19799;DHT22;10059;59.850;10.454;2023-05-07T15:00:29;16.40;86.20
19799;DHT22;10059;59.850;10.454;2023-05-07T15:03:05;16.50;84.90
19799;DHT22;10059;59.850;10.454;2023-05-07T15:05:33;16.10;84.80
19799;DHT22;10059;59.850;10.454;2023-05-07T15:07:59;16.20;85.80
19799;DHT22;10059;59.850;10.454;2023-05-07T15:10:26;16.20;85.00
19799;DHT22;10059;59.850;10.454;2023-05-07T15:12:53;16.10;86.00
19799;DHT22;10059;59.850;10.454;2023-05-07T15:15:20;16.00;85.70
19799;DHT22;10059;59.850;10.454;2023-05-07T15:17:48;16.30;85.80
19799;DHT22;10059;59.850;10.454;2023-05-07T15:20:15;16.10;85.00
19799;DHT22;10059;59.850;10.454;2023-05-07T15:22:43;16.80;83.60
19799;DHT22;10059;59.850;10.454;2023-05-07T15:25:10;16.70;82.60
19799;DHT22;10059;59.850;10.454;2023-05-07T15:27:37;16.30;82.50
19799;DHT22;10059;59.850;10.454;2023-05-07T15:30:05;16.20;82.30